Terminal Aerodrome Forecast
Issued by NWS

Home | Current Version | Previous Version | Text Only | Print | Product List | Glossary On
Versions: 1 2 3 4 5 6 7 8 9 10 11 12 13 14 15
000
FTUS45 KTFX 062338
TAFLWT
TAF
KLWT 062338Z 0700/0724 VRB05KT P6SM SKC
     FM071400 36005KT P6SM SCT050 BKN100
     FM071800 05008KT P6SM VCSH SCT040 BKN070=

USA.gov is the U.S. government's official web portal to all federal, state and local government web resources and services.